createdAt,value
2023-02-20T00:02:39.317Z,1.22
2023-02-20T00:05:22.139Z,1.21
2023-02-20T00:08:03.033Z,1.21
2023-02-20T00:10:44.135Z,1.21
2023-02-20T00:13:32.008Z,1.23
2023-02-20T00:16:07.446Z,1.27
2023-02-20T00:18:55.010Z,1.30
2023-02-20T00:21:29.149Z,1.33
2023-02-20T00:24:17.013Z,1.34
2023-02-20T00:27:17.161Z,1.37
2023-02-20T00:30:12.057Z,1.40
2023-02-20T00:33:09.017Z,1.40
2023-02-20T00:35:50.401Z,1.41
2023-02-20T00:38:38.009Z,1.44
2023-02-20T00:41:24.020Z,1.47
2023-02-20T00:44:05.183Z,1.51
2023-02-20T00:46:46.266Z,1.51
2023-02-20T00:49:28.340Z,1.51
2023-02-20T00:52:17.198Z,1.49
2023-02-20T00:54:59.218Z,1.46
2023-02-20T00:57:56.010Z,1.45
2023-02-20T01:00:51.138Z,1.43
2023-02-20T01:03:39.204Z,1.40
2023-02-20T01:06:15.124Z,1.39
2023-02-20T01:09:03.208Z,1.37
2023-02-20T01:11:38.337Z,1.38
2023-02-20T01:14:28.011Z,1.40
2023-02-20T01:17:10.989Z,1.44
2023-02-20T01:19:59.001Z,1.48
2023-02-20T01:22:33.136Z,1.52
2023-02-20T01:25:21.001Z,1.55
2023-02-20T01:28:02.131Z,1.57
2023-02-20T01:30:42.991Z,1.57
2023-02-20T01:33:38.001Z,1.58
2023-02-20T01:36:26.190Z,1.62
2023-02-20T01:39:08.213Z,1.66
2023-02-20T01:42:07.007Z,1.68
2023-02-20T01:44:54.983Z,1.68
2023-02-20T01:47:30.141Z,1.67
2023-02-20T01:50:17.999Z,1.66
2023-02-20T01:53:02.134Z,1.64
2023-02-20T01:55:59.991Z,1.64
2023-02-20T01:59:00.028Z,1.68
2023-02-20T02:01:48.014Z,1.71
2023-02-20T02:04:30.001Z,1.71
2023-02-20T02:07:25.086Z,1.71
2023-02-20T02:10:35.986Z,1.69
2023-02-20T02:13:18.001Z,1.64
2023-02-20T02:16:31.023Z,1.60
2023-02-20T02:19:47.048Z,1.63
2023-02-20T02:22:54.035Z,1.63
2023-02-20T02:25:58.997Z,1.64
2023-02-20T02:29:03.096Z,1.63
2023-02-20T02:32:06.114Z,1.59
2023-02-20T02:34:57.130Z,1.57
2023-02-20T02:38:09.003Z,1.57
2023-02-20T02:40:51.193Z,1.56
2023-02-20T02:43:50.072Z,1.56
2023-02-20T02:46:50.135Z,1.57
2023-02-20T02:49:55.962Z,1.55
2023-02-20T02:52:55.966Z,1.54
2023-02-20T02:55:51.072Z,1.55
2023-02-20T02:58:46.077Z,1.58
2023-02-20T03:01:35.038Z,1.59
2023-02-20T03:04:12.218Z,1.59
2023-02-20T03:07:06.967Z,1.59
2023-02-20T03:09:52.343Z,1.58
2023-02-20T03:12:41.995Z,1.56
2023-02-20T03:15:38.202Z,1.57
2023-02-20T03:18:42.983Z,1.57
2023-02-20T03:21:28.105Z,1.57
2023-02-20T03:24:10.976Z,1.55
2023-02-20T03:27:00.012Z,1.53
2023-02-20T03:29:43.009Z,1.50
2023-02-20T03:32:49.991Z,1.46
2023-02-20T03:36:04.041Z,1.42
2023-02-20T03:39:13.976Z,1.36
2023-02-20T03:42:07.452Z,1.29
2023-02-20T03:44:55.089Z,1.23
2023-02-20T03:47:35.312Z,1.18
2023-02-20T03:50:23.986Z,1.18
2023-02-20T03:52:59.104Z,1.17
2023-02-20T03:55:46.996Z,1.16
2023-02-20T03:58:29.976Z,1.13
2023-02-20T04:01:25.989Z,1.07
2023-02-20T04:04:15.084Z,1.02
2023-02-20T04:06:51.136Z,1.02
2023-02-20T04:09:41.035Z,0.99
2023-02-20T04:12:30.958Z,0.95
2023-02-20T04:15:19.976Z,0.90
2023-02-20T04:18:08.100Z,0.83
2023-02-20T04:20:59.969Z,0.76
2023-02-20T04:23:36.139Z,0.74
2023-02-20T04:26:28.022Z,0.76
2023-02-20T04:29:10.019Z,0.78
2023-02-20T04:31:58.088Z,0.78
2023-02-20T04:34:40.052Z,0.76
2023-02-20T04:37:35.106Z,0.77
2023-02-20T04:40:25.050Z,0.76
2023-02-20T04:43:07.036Z,0.72
2023-02-20T04:46:02.103Z,0.70
2023-02-20T04:48:49.972Z,0.68
2023-02-20T04:51:25.077Z,0.68
2023-02-20T04:54:12.993Z,0.70
2023-02-20T04:56:54.946Z,0.72
2023-02-20T04:59:50.044Z,0.74
2023-02-20T05:02:37.980Z,0.77
2023-02-20T05:05:14.085Z,0.79
2023-02-20T05:08:02.951Z,0.85
2023-02-20T05:10:51.948Z,0.90
2023-02-20T05:13:33.037Z,0.92
2023-02-20T05:16:15.531Z,0.94
2023-02-20T05:19:03.995Z,0.96
2023-02-20T05:21:57.870Z,0.97
2023-02-20T05:24:45.949Z,1.00
2023-02-20T05:27:22.085Z,0.99
2023-02-20T05:30:11.076Z,0.97
2023-02-20T05:32:46.120Z,0.95
2023-02-20T05:35:34.217Z,0.94
2023-02-20T05:38:09.070Z,0.94
2023-02-20T05:40:56.954Z,0.95
2023-02-20T05:43:38.970Z,0.94
2023-02-20T05:46:27.043Z,0.92
2023-02-20T05:49:08.981Z,0.90
2023-02-20T05:52:03.937Z,0.93
2023-02-20T05:54:54.948Z,0.95
2023-02-20T05:57:30.120Z,0.97
2023-02-20T06:00:18.955Z,0.99
2023-02-20T06:02:54.056Z,0.98
2023-02-20T06:05:41.932Z,0.99
2023-02-20T06:08:23.949Z,1.05
2023-02-20T06:11:05.328Z,1.13
2023-02-20T06:13:57.943Z,1.20
2023-02-20T06:16:33.285Z,1.29
2023-02-20T06:19:20.943Z,1.37
2023-02-20T06:21:55.491Z,1.45
2023-02-20T06:24:43.926Z,1.55
2023-02-20T06:27:39.135Z,1.64
2023-02-20T06:30:28.145Z,1.73
2023-02-20T06:33:03.079Z,1.79
2023-02-20T06:35:50.930Z,1.83
2023-02-20T06:38:33.161Z,1.86
2023-02-20T06:41:28.156Z,1.91
2023-02-20T06:44:16.934Z,1.97
2023-02-20T06:46:51.316Z,1.99
2023-02-20T06:49:39.930Z,1.99
2023-02-20T06:52:15.331Z,2.02
2023-02-20T06:55:02.950Z,2.05
2023-02-20T06:57:39.077Z,2.10
2023-02-20T07:00:26.941Z,2.17
2023-02-20T07:03:02.268Z,2.25
2023-02-20T07:05:50.143Z,2.30
2023-02-20T07:08:31.934Z,2.34
2023-02-20T07:11:20.954Z,2.36
2023-02-20T07:13:58.865Z,2.40
2023-02-20T07:16:47.928Z,2.41
2023-02-20T07:19:35.945Z,2.43
2023-02-20T07:22:17.247Z,2.48
2023-02-20T07:25:05.942Z,2.55
2023-02-20T07:27:46.933Z,2.60
2023-02-20T07:30:34.983Z,2.62
2023-02-20T07:33:32.929Z,2.63
2023-02-20T07:36:21.912Z,2.62
2023-02-20T07:39:07.205Z,2.61
2023-02-20T07:41:58.116Z,2.61
2023-02-20T07:44:34.450Z,2.58
2023-02-20T07:47:23.005Z,2.56
2023-02-20T07:50:04.938Z,2.58
2023-02-20T07:52:59.930Z,2.64
2023-02-20T07:55:54.919Z,2.70
2023-02-20T07:58:44.468Z,2.78
2023-02-20T08:01:25.985Z,2.90
2023-02-20T08:04:14.067Z,3.06
2023-02-20T08:06:54.963Z,3.18
2023-02-20T08:09:36.141Z,3.29
2023-02-20T08:12:17.935Z,3.39
2023-02-20T08:15:12.984Z,3.47
2023-02-20T08:18:00.970Z,3.55
2023-02-20T08:20:36.063Z,3.61
2023-02-20T08:23:28.962Z,3.62
2023-02-20T08:26:04.114Z,3.63
2023-02-20T08:28:53.929Z,3.68
2023-02-20T08:31:32.868Z,3.77
2023-02-20T08:34:20.940Z,3.99
2023-02-20T08:37:02.936Z,4.18
2023-02-20T08:39:50.978Z,4.38
2023-02-20T08:42:32.979Z,4.45
2023-02-20T08:45:29.980Z,4.45
2023-02-20T08:48:17.901Z,4.45
2023-02-20T08:50:59.908Z,4.50
2023-02-20T08:53:54.916Z,4.52
2023-02-20T08:56:42.928Z,4.53
2023-02-20T08:59:18.165Z,4.58
2023-02-20T09:02:05.971Z,4.60
2023-02-20T09:04:41.110Z,4.57
2023-02-20T09:07:31.895Z,4.60
2023-02-20T09:10:13.057Z,4.65
2023-02-20T09:12:59.014Z,4.69
2023-02-20T09:15:49.985Z,4.80
2023-02-20T09:18:44.894Z,4.92
2023-02-20T09:21:35.919Z,5.05
2023-02-20T09:24:13.026Z,5.11
2023-02-20T09:27:00.912Z,5.12
2023-02-20T09:29:41.274Z,5.12
2023-02-20T09:32:28.959Z,5.07
2023-02-20T09:35:04.143Z,5.03
2023-02-20T09:37:51.977Z,5.01
2023-02-20T09:40:32.927Z,5.05
2023-02-20T09:43:26.937Z,5.13
2023-02-20T09:46:17.181Z,5.18
2023-02-20T09:49:14.916Z,5.22
2023-02-20T09:51:52.060Z,5.23
2023-02-20T09:54:53.007Z,5.21
2023-02-20T09:57:33.060Z,5.19
2023-02-20T10:00:35.901Z,5.20
2023-02-20T10:03:30.919Z,5.28
2023-02-20T10:06:23.887Z,5.43
2023-02-20T10:08:59.141Z,5.56
2023-02-20T10:11:59.979Z,5.69
2023-02-20T10:14:47.207Z,5.80
2023-02-20T10:17:57.971Z,5.85
2023-02-20T10:21:05.774Z,5.82
2023-02-20T10:24:04.568Z,5.86
2023-02-20T10:26:57.035Z,5.95
2023-02-20T10:29:35.050Z,6.03
2023-02-20T10:32:26.873Z,6.02
2023-02-20T10:35:24.901Z,5.97
2023-02-20T10:38:15.891Z,5.95
2023-02-20T10:41:04.297Z,5.91
2023-02-20T10:43:59.992Z,5.85
2023-02-20T10:47:06.982Z,5.82
2023-02-20T10:50:07.883Z,5.84
2023-02-20T10:52:59.098Z,5.88
2023-02-20T10:56:11.157Z,5.93
2023-02-20T10:59:27.062Z,6.01
2023-02-20T11:02:22.982Z,6.15
2023-02-20T11:05:09.004Z,6.32
2023-02-20T11:07:57.888Z,6.46
2023-02-20T11:10:35.521Z,6.57
2023-02-20T11:13:28.890Z,6.66
2023-02-20T11:16:11.161Z,6.75
2023-02-20T11:19:08.902Z,6.85
2023-02-20T11:21:54.000Z,6.92
2023-02-20T11:24:36.872Z,6.98
2023-02-20T11:27:35.267Z,7.06
2023-02-20T11:30:37.908Z,7.11
2023-02-20T11:33:24.029Z,7.14
2023-02-20T11:36:18.379Z,7.13
2023-02-20T11:39:13.935Z,7.07
2023-02-20T11:42:11.007Z,7.01
2023-02-20T11:44:58.908Z,6.98
2023-02-20T11:47:33.481Z,6.93
2023-02-20T11:50:26.876Z,6.90
2023-02-20T11:53:05.475Z,6.92
2023-02-20T11:56:00.002Z,6.96
2023-02-20T11:58:35.750Z,7.10
2023-02-20T12:01:52.456Z,7.28
2023-02-20T12:04:34.317Z,7.42
2023-02-20T12:07:48.050Z,7.46
2023-02-20T12:10:42.942Z,7.55
2023-02-20T12:13:25.044Z,7.61
2023-02-20T12:16:24.989Z,7.65
2023-02-20T12:19:25.997Z,7.77
2023-02-20T12:22:21.864Z,7.90
2023-02-20T12:25:30.876Z,7.95
2023-02-20T12:28:56.875Z,8.01
2023-02-20T12:32:26.919Z,8.12
2023-02-20T12:35:34.917Z,8.32
2023-02-20T12:39:00.946Z,8.49
2023-02-20T12:41:38.001Z,8.49
2023-02-20T12:44:49.882Z,8.44
2023-02-20T12:47:46.862Z,8.42
2023-02-20T12:50:57.170Z,8.43
2023-02-20T12:54:26.863Z,8.43
2023-02-20T12:57:30.876Z,8.37
2023-02-20T13:00:28.923Z,8.32
2023-02-20T13:03:45.989Z,8.29
2023-02-20T13:06:32.153Z,8.16
2023-02-20T13:09:40.977Z,8.07
2023-02-20T13:12:22.927Z,8.07
2023-02-20T13:15:33.876Z,8.08
2023-02-20T13:18:23.875Z,8.08
2023-02-20T13:21:17.177Z,8.08
2023-02-20T13:24:04.889Z,8.13
2023-02-20T13:26:39.351Z,8.20
2023-02-20T13:29:30.892Z,8.24
2023-02-20T13:32:17.490Z,8.32
2023-02-20T13:35:09.872Z,8.41
2023-02-20T13:37:58.860Z,8.45
2023-02-20T13:40:46.008Z,8.54
2023-02-20T13:43:32.872Z,8.62
2023-02-20T13:46:20.852Z,8.76
2023-02-20T13:48:56.439Z,8.95
2023-02-20T13:51:44.869Z,9.05
2023-02-20T13:54:38.874Z,9.06
2023-02-20T13:57:26.959Z,9.01
2023-02-20T14:00:04.038Z,8.88
2023-02-20T14:02:51.908Z,8.76
2023-02-20T14:05:34.988Z,8.70
2023-02-20T14:08:26.884Z,8.62
2023-02-20T14:11:08.869Z,8.53
2023-02-20T14:14:04.891Z,8.46
2023-02-20T14:16:53.882Z,8.37
2023-02-20T14:19:31.039Z,8.32
2023-02-20T14:22:27.867Z,8.26
2023-02-20T14:25:27.885Z,8.21
2023-02-20T14:28:21.923Z,8.19
2023-02-20T14:31:52.957Z,8.16
2023-02-20T14:34:56.867Z,8.12
2023-02-20T14:38:02.853Z,8.13
2023-02-20T14:40:51.269Z,8.14
2023-02-20T14:43:38.857Z,8.14
2023-02-20T14:46:15.133Z,8.15
2023-02-20T14:49:17.850Z,8.14
2023-02-20T14:51:53.018Z,8.14
2023-02-20T14:54:40.875Z,8.20
2023-02-20T14:57:23.164Z,8.22
2023-02-20T15:00:23.869Z,8.19
2023-02-20T15:03:05.003Z,8.18
2023-02-20T15:05:47.904Z,8.16
2023-02-20T15:08:37.948Z,8.18
2023-02-20T15:11:14.027Z,8.21
2023-02-20T15:14:01.865Z,8.26
2023-02-20T15:16:40.406Z,8.26
2023-02-20T15:19:48.876Z,8.21
2023-02-20T15:22:32.574Z,8.16
2023-02-20T15:25:34.867Z,8.11
2023-02-20T15:28:20.903Z,8.14
2023-02-20T15:31:13.032Z,8.14
2023-02-20T15:33:58.847Z,8.11
2023-02-20T15:36:54.842Z,8.10
2023-02-20T15:39:47.896Z,8.08
2023-02-20T15:42:23.980Z,8.08
2023-02-20T15:45:11.923Z,8.12
2023-02-20T15:47:55.028Z,8.15
2023-02-20T15:50:50.031Z,8.17
2023-02-20T15:53:38.908Z,8.19
2023-02-20T15:56:14.369Z,8.19
2023-02-20T15:59:03.861Z,8.20
2023-02-20T16:01:39.019Z,8.23
2023-02-20T16:04:26.835Z,8.27
2023-02-20T16:07:01.029Z,8.29
2023-02-20T16:09:48.901Z,8.31
2023-02-20T16:12:32.870Z,8.31
2023-02-20T16:15:35.153Z,8.31
2023-02-20T16:18:23.884Z,8.37
2023-02-20T16:21:06.106Z,8.43
2023-02-20T16:24:01.042Z,8.47
2023-02-20T16:26:51.129Z,8.48
2023-02-20T16:29:43.019Z,8.49
2023-02-20T16:32:32.916Z,8.50
2023-02-20T16:35:07.978Z,8.52
2023-02-20T16:37:59.851Z,8.53
2023-02-20T16:40:41.912Z,8.59
2023-02-20T16:43:31.047Z,8.65
2023-02-20T16:46:06.206Z,8.69
2023-02-20T16:48:56.034Z,8.72
2023-02-20T16:51:31.914Z,8.75
2023-02-20T16:54:19.852Z,8.77
2023-02-20T16:56:53.999Z,8.78
2023-02-20T16:59:41.844Z,8.81
2023-02-20T17:02:37.092Z,8.85
2023-02-20T17:05:28.046Z,8.91
2023-02-20T17:08:04.166Z,8.95
2023-02-20T17:10:51.856Z,8.97
2023-02-20T17:13:33.843Z,8.97
2023-02-20T17:16:31.299Z,8.97
2023-02-20T17:19:13.831Z,8.96
2023-02-20T17:22:08.856Z,8.98
2023-02-20T17:24:56.851Z,8.99
2023-02-20T17:27:31.982Z,9.02
2023-02-20T17:30:20.913Z,9.03
2023-02-20T17:32:56.177Z,9.03
2023-02-20T17:35:52.853Z,9.03
2023-02-20T17:38:47.845Z,9.04
2023-02-20T17:41:35.845Z,9.03
2023-02-20T17:44:10.996Z,9.04
2023-02-20T17:47:01.946Z,9.07
2023-02-20T17:49:38.051Z,9.09
2023-02-20T17:52:27.850Z,9.15
2023-02-20T17:55:03.155Z,9.15
2023-02-20T17:57:50.830Z,9.12
2023-02-20T18:00:30.127Z,9.12
2023-02-20T18:03:17.845Z,9.11
2023-02-20T18:05:54.247Z,9.10
2023-02-20T18:08:41.866Z,9.08
2023-02-20T18:11:18.031Z,9.09
2023-02-20T18:14:17.904Z,9.11
2023-02-20T18:17:08.911Z,9.13
2023-02-20T18:19:44.043Z,9.11
2023-02-20T18:22:31.882Z,9.09
2023-02-20T18:25:15.132Z,9.06
2023-02-20T18:28:10.068Z,9.01
2023-02-20T18:30:59.891Z,8.94
2023-02-20T18:33:35.020Z,8.88
2023-02-20T18:36:23.256Z,8.83
2023-02-20T18:39:06.821Z,8.81
2023-02-20T18:42:08.841Z,8.81
2023-02-20T18:44:58.831Z,8.79
2023-02-20T18:47:39.841Z,8.80
2023-02-20T18:50:27.818Z,8.80
2023-02-20T18:53:06.113Z,8.81
2023-02-20T18:55:55.826Z,8.79
2023-02-20T18:58:37.814Z,8.80
2023-02-20T19:01:20.857Z,8.83
2023-02-20T19:04:14.889Z,8.89
2023-02-20T19:06:58.901Z,8.95
2023-02-20T19:09:45.459Z,9.02
2023-02-20T19:12:26.822Z,9.06
2023-02-20T19:15:23.845Z,9.07
2023-02-20T19:18:12.936Z,9.05
2023-02-20T19:20:52.167Z,9.01
2023-02-20T19:23:39.826Z,8.99
2023-02-20T19:26:15.667Z,8.99
2023-02-20T19:29:03.877Z,8.99
2023-02-20T19:31:39.066Z,9.01
2023-02-20T19:34:28.029Z,9.05
2023-02-20T19:37:09.821Z,9.08
2023-02-20T19:39:57.828Z,9.12
2023-02-20T19:42:33.126Z,9.15
2023-02-20T19:45:20.823Z,9.17
2023-02-20T19:48:08.817Z,9.20
2023-02-20T19:50:56.854Z,9.23
2023-02-20T19:53:40.900Z,9.24
2023-02-20T19:56:35.831Z,9.27
2023-02-20T19:59:23.980Z,9.31
2023-02-20T20:02:04.100Z,9.39
2023-02-20T20:04:52.811Z,9.44
2023-02-20T20:07:33.968Z,9.50
2023-02-20T20:10:15.835Z,9.53
2023-02-20T20:12:57.954Z,9.56
2023-02-20T20:15:40.830Z,9.58
2023-02-20T20:18:28.803Z,9.58
2023-02-20T20:21:10.903Z,9.59
2023-02-20T20:23:52.936Z,9.61
2023-02-20T20:26:36.486Z,9.60
2023-02-20T20:29:17.969Z,9.62
2023-02-20T20:31:59.288Z,9.64
2023-02-20T20:34:42.557Z,9.68
2023-02-20T20:37:23.859Z,9.70
2023-02-20T20:40:07.193Z,9.74
2023-02-20T20:42:50.843Z,9.78
2023-02-20T20:45:33.230Z,9.82
2023-02-20T20:48:16.050Z,9.83
2023-02-20T20:51:00.174Z,9.85
2023-02-20T20:53:41.903Z,9.88
2023-02-20T20:56:30.240Z,9.92
2023-02-20T20:59:07.700Z,9.95
2023-02-20T21:01:58.017Z,9.97
2023-02-20T21:04:32.978Z,9.98
2023-02-20T21:07:20.881Z,9.98
2023-02-20T21:09:55.506Z,10.00
2023-02-20T21:12:43.818Z,9.99
2023-02-20T21:15:24.852Z,9.98
2023-02-20T21:18:05.960Z,9.98
2023-02-20T21:20:53.805Z,9.98
2023-02-20T21:23:35.796Z,9.98
2023-02-20T21:26:33.193Z,9.99
2023-02-20T21:29:21.338Z,9.98
2023-02-20T21:31:56.314Z,9.98
2023-02-20T21:34:46.538Z,9.93
2023-02-20T21:37:29.556Z,9.88
2023-02-20T21:40:24.879Z,9.84
2023-02-20T21:43:30.823Z,9.77
2023-02-20T21:46:06.036Z,9.77
2023-02-20T21:48:53.795Z,9.74
2023-02-20T21:51:28.943Z,9.72
2023-02-20T21:54:16.804Z,9.72
2023-02-20T21:56:58.825Z,9.71
2023-02-20T21:59:53.876Z,9.71
2023-02-20T22:02:41.898Z,9.68
2023-02-20T22:05:24.817Z,9.68
2023-02-20T22:08:31.793Z,9.66
2023-02-20T22:11:31.812Z,9.66
2023-02-20T22:14:45.787Z,9.69
2023-02-20T22:17:52.812Z,9.71
2023-02-20T22:20:46.751Z,9.75
2023-02-20T22:23:54.416Z,9.81
2023-02-20T22:26:47.566Z,9.87
2023-02-20T22:29:54.828Z,9.90
2023-02-20T22:32:54.909Z,9.93
2023-02-20T22:36:01.865Z,9.93
2023-02-20T22:38:55.555Z,9.94
2023-02-20T22:42:02.832Z,9.93
2023-02-20T22:45:02.798Z,9.93
2023-02-20T22:48:15.799Z,9.92
2023-02-20T22:51:22.813Z,9.93
2023-02-20T22:54:22.821Z,9.96
2023-02-20T22:57:29.810Z,9.97
2023-02-20T23:00:23.389Z,9.99
2023-02-20T23:03:30.808Z,9.98
2023-02-20T23:06:23.490Z,9.98
2023-02-20T23:09:31.806Z,9.96
2023-02-20T23:12:24.784Z,9.98
2023-02-20T23:15:31.817Z,9.96
2023-02-20T23:18:31.894Z,9.97
2023-02-20T23:21:45.005Z,9.99
2023-02-20T23:24:52.005Z,9.99
2023-02-20T23:27:51.824Z,9.96
2023-02-20T23:31:04.996Z,9.93
2023-02-20T23:34:12.814Z,9.88
2023-02-20T23:37:15.475Z,9.83
2023-02-20T23:40:30.822Z,9.77
2023-02-20T23:43:38.791Z,9.73
2023-02-20T23:46:44.784Z,9.68
2023-02-20T23:49:38.578Z,9.62
2023-02-20T23:52:45.788Z,9.56
2023-02-20T23:55:39.550Z,9.50
2023-02-20T23:58:46.780Z,9.48
